FW0747 Weather Reports


time (UTC)temp
C
wind
direction
speed
KPH
gust
KPH
rain 1hr
cm
rain 24hr
cm
rain mn
cm
humidity
%
barometer
mb
20200229100715 14 0.0 0.0 0.00 0.00 0.00 91 1013.5
20200229095714 14 0.0 0.0 0.00 0.00 0.00 91 1013.6
20200229094714 14 0.0 0.0 0.00 0.00 0.00 91 1013.8
20200229093713 14 0.0 0.0 0.00 0.00 0.00 91 1013.9
20200229092715 14 22 1.6 1.6 0.00 0.00 0.00 92 1014.1
20200229091712 14 22 3.2 3.2 0.00 0.00 0.00 91 1014.2
20200229090712 14 22 4.8 6.4 0.00 0.00 0.00 90 1014.4
20200229085714 14 0 4.8 4.8 0.00 0.00 0.00 91 1014.5
20200229084711 14 22 3.2 4.8 0.00 0.00 0.00 91 1014.6
20200229083712 13 0 4.8 6.4 0.00 0.00 0.00 91 1014.7
20200229082711 13 0 6.4 8.0 0.00 0.00 0.00 90 1014.9
20200229081711 13 0 6.4 6.4 0.00 0.00 0.00 90 1015.0
20200229080713 14 0 4.8 6.4 0.00 0.00 0.00 90 1014.9
20200229075711 14 22 6.4 8.0 0.00 0.00 0.00 88 1014.9
20200229074711 15 22 4.8 6.4 0.00 0.00 0.00 88 1014.9
20200229073711 15 315 3.2 4.8 0.00 0.00 0.00 87 1015.0
20200229072712 15 0.0 0.0 0.00 0.00 0.00 88 1015.0
20200229071711 15 270 1.6 3.2 0.00 0.00 0.00 87 1015.2
20200229070711 15 270 1.6 3.2 0.00 0.00 0.00 86 1015.1
20200229065711 16 0.0 0.0 0.00 0.00 0.00 84 1015.0
20200229064711 16 0.0 0.0 0.00 0.00 0.00 84 1015.1
20200229063711 16 270 3.2 4.8 0.00 0.00 0.00 84 1015.3
20200229062711 17 270 4.8 6.4 0.00 0.00 0.00 84 1015.3
20200229061711 16 270 8.0 9.7 0.00 0.00 0.00 84 1015.3
20200229060711 16 270 6.4 9.7 0.00 0.00 0.00 83 1015.5
20200229055713 16 247 3.2 4.8 0.00 0.00 0.00 83 1015.6
20200229054711 17 202 3.2 4.8 0.00 0.00 0.00 83 1015.4
20200229053711 17 202 3.2 4.8 0.00 0.00 0.00 82 1015.2
20200229052711 17 180 3.2 4.8 0.00 0.00 0.00 81 1015.2
20200229051712 17 0.0 0.0 0.00 0.00 0.00 81 1015.3
20200229050711 17 0.0 0.0 0.00 0.00 0.00 81 1015.3
20200229045712 17 0.0 0.0 0.00 0.00 0.00 81 1015.4
20200229044711 17 0.0 0.0 0.00 0.00 0.00 81 1015.3
20200229043711 17 0.0 0.0 0.00 0.00 0.00 81 1015.3
20200229042712 17 0.0 0.0 0.00 0.00 0.00 81 1015.4
20200229041714 17 0.0 0.0 0.00 0.00 0.00 81 1015.4
20200229040712 17 0.0 0.0 0.00 0.00 0.00 81 1015.3
20200229035711 17 0.0 0.0 0.00 0.00 0.00 80 1015.3
20200229034712 17 0.0 0.0 0.00 0.00 0.00 79 1015.3
20200229033711 17 0.0 0.0 0.00 0.00 0.00 78 1015.4
20200229032713 18 270 3.2 4.8 0.00 0.00 0.00 78 1015.5
20200229031711 18 270 3.2 4.8 0.00 0.00 0.00 76 1015.5
20200229030711 18 270 4.8 6.4 0.00 0.00 0.00 75 1015.4
20200229025711 18 270 1.6 3.2 0.00 0.00 0.00 74 1015.3
20200229024711 18 270 3.2 3.2 0.00 0.00 0.00 73 1014.9
20200229023715 19 270 1.6 3.2 0.00 0.00 0.00 70 1014.8
20200229022711 19 270 1.6 1.6 0.00 0.00 0.00 68 1014.7
20200229021710 20 270 3.2 4.8 0.00 0.00 0.00 67 1014.6
20200229020711 20 270 6.4 9.7 0.00 0.00 0.00 65 1014.6
20200229015712 20 270 4.8 8.0 0.00 0.00 0.00 62 1014.5
20200229014710 21 292 8.0 12.9 0.00 0.00 0.00 60 1014.4
20200229013711 21 270 8.0 11.3 0.00 0.00 0.00 61 1014.4
20200229012710 22 270 8.0 14.5 0.00 0.00 0.00 60 1014.3
20200229011711 22 270 9.7 14.5 0.00 0.00 0.00 58 1014.2
20200229010714 23 270 9.7 16.1 0.00 0.00 0.00 56 1014.1
20200229005710 23 270 8.0 14.5 0.00 0.00 0.00 57 1014.0
20200229004711 24 270 9.7 14.5 0.00 0.00 0.00 57 1013.8
20200229003711 25 270 9.7 12.9 0.00 0.00 0.00 58 1013.6
20200229002710 25 270 11.3 14.5 0.00 0.00 0.00 56 1013.5
20200229001710 25 247 16.1 20.9 0.00 0.00 0.00 52 1013.4
20200229000710 25 247 11.3 16.1 0.00 0.00 0.00 52 1013.4
20200228235711 26 247 11.3 14.5 0.00 0.00 0.00 52 1013.3
20200228234710 26 247 14.5 17.7 0.00 0.00 0.00 51 1013.1
20200228233712 27 247 12.9 19.3 0.00 0.00 0.00 48 1013.1
20200228232711 27 247 12.9 16.1 0.00 0.00 0.00 48 1013.0
20200228231712 28 225 14.5 19.3 0.00 0.00 0.00 48 1012.9
20200228230710 28 247 14.5 19.3 0.00 0.00 0.00 47 1013.0
20200228225710 28 225 12.9 17.7 0.00 0.00 0.00 49 1012.9
20200228224712 28 247 11.3 17.7 0.00 0.00 0.00 49 1012.8
20200228223711 28 247 9.7 12.9 0.00 0.00 0.00 50 1012.9
20200228222711 28 247 9.7 14.5 0.00 0.00 0.00 49 1012.9
20200228221710 28 225 12.9 14.5 0.00 0.00 0.00 50 1012.9
20200228220710 28 247 11.3 14.5 0.00 0.00 0.00 51 1012.9
20200228215711 28 247 6.4 11.3 0.00 0.00 0.00 51 1013.0
20200228214714 29 247 11.3 12.9 0.00 0.00 0.00 51 1013.2
20200228213710 29 247 11.3 16.1 0.00 0.00 0.00 51 1013.2
20200228212711 28 247 9.7 16.1 0.00 0.00 0.00 52 1013.3
20200228211711 29 270 12.9 19.3 0.00 0.00 0.00 52 1013.5
20200228210711 29 225 14.5 22.5 0.00 0.00 0.00 50 1013.6
20200228205710 29 247 8.0 12.9 0.00 0.00 0.00 51 1013.8
20200228204714 30 247 11.3 14.5 0.00 0.00 0.00 45 1013.9
20200228203710 30 247 4.8 4.8 0.00 0.00 0.00 45 1014.1
20200228202710 30 292 4.8 9.7 0.00 0.00 0.00 45 1014.1
20200228201710 30 270 6.4 11.3 0.00 0.00 0.00 44 1014.4
20200228200710 29 270 8.0 14.5 0.00 0.00 0.00 47 1014.5
20200228195712 29 247 11.3 14.5 0.00 0.00 0.00 48 1014.6
20200228194710 28 270 6.4 8.0 0.00 0.00 0.00 45 1014.7
20200228193712 28 247 9.7 16.1 0.00 0.00 0.00 50 1014.9
20200228192710 28 247 4.8 8.0 0.00 0.00 0.00 51 1015.0
20200228191710 28 247 4.8 8.0 0.00 0.00 0.00 52 1015.2
20200228190710 28 247 4.8 11.3 0.00 0.00 0.00 53 1015.3
20200228185710 27 292 4.8 11.3 0.00 0.00 0.00 56 1015.5
20200228184710 27 247 8.0 11.3 0.00 0.00 0.00 55 1015.7
20200228183710 28 270 6.4 14.5 0.00 0.00 0.00 53 1015.8
20200228182710 28 292 4.8 8.0 0.00 0.00 0.00 52 1016.0
20200228181711 28 292 4.8 9.7 0.00 0.00 0.00 54 1016.0
20200228180710 27 292 6.4 11.3 0.00 0.00 0.00 57 1016.0
20200228175710 26 270 3.2 4.8 0.00 0.00 0.00 56 1016.1
20200228174710 26 0 4.8 6.4 0.00 0.00 0.00 57 1016.2
20200228173710 26 315 4.8 9.7 0.00 0.00 0.00 58 1016.2
20200228172710 25 315 6.4 11.3 0.00 0.00 0.00 59 1016.2
20200228171710 25 337 8.0 9.7 0.00 0.00 0.00 61 1016.4
20200228170710 24 270 3.2 6.4 0.00 0.00 0.00 63 1016.4
20200228165712 24 292 4.8 6.4 0.00 0.00 0.00 64 1016.4
20200228164710 23 315 6.4 9.7 0.00 0.00 0.00 68 1016.6
20200228163710 23 315 6.4 12.9 0.00 0.00 0.00 68 1016.6
20200228162710 22 0 6.4 8.0 0.00 0.00 0.00 69 1016.5
20200228161710 22 292 4.8 8.0 0.00 0.00 0.00 72 1016.6
20200228160710 21 292 1.6 4.8 0.00 0.00 0.00 77 1016.5
20200228155710 20 315 3.2 4.8 0.00 0.00 0.00 80 1016.3
20200228154710 19 337 3.2 6.4 0.00 0.00 0.00 82 1016.2
20200228153710 18 337 4.8 4.8 0.00 0.00 0.00 85 1016.1
20200228152711 18 337 4.8 4.8 0.00 0.00 0.00 86 1016.0
20200228151710 17 337 3.2 4.8 0.00 0.00 0.00 87 1016.0
20200228150710 16 315 3.2 4.8 0.00 0.00 0.00 88 1015.9
20200228145710 16 0 1.6 3.2 0.00 0.00 0.00 89 1015.8
20200228144711 15 0 4.8 6.4 0.00 0.00 0.00 89 1015.8
20200228143710 14 22 4.8 6.4 0.00 0.00 0.00 91 1015.7
20200228142710 13 0.0 0.0 0.00 0.00 0.00 91 1015.5
20200228141711 13 0.0 0.0 0.00 0.00 0.00 93 1015.5
20200228140710 12 22 1.6 3.2 0.00 0.00 0.00 93 1015.3
20200228135712 12 22 3.2 3.2 0.00 0.00 0.00 91 1015.2
20200228134712 13 337 3.2 4.8 0.00 0.00 0.00 94 1015.0
20200228133712 13 337 4.8 6.4 0.00 0.00 0.00 94 1014.9
20200228132712 12 270 8.0 12.9 0.00 0.00 0.00 94 1014.6
20200228131712 12 292 4.8 6.4 0.00 0.00 0.00 94 1014.7
20200228130713 12 270 3.2 4.8 0.00 0.00 0.00 94 1014.7
20200228125711 12 292 3.2 4.8 0.00 0.00 0.00 94 1014.6
20200228124712 12 315 1.6 3.2 0.00 0.00 0.00 94 1014.6
20200228123712 12 292 3.2 4.8 0.00 0.00 0.00 95 1014.4
20200228122712 12 292 1.6 3.2 0.00 0.00 0.00 95 1014.4
20200228121713 12 292 3.2 4.8 0.00 0.00 0.00 95 1014.4
20200228120712 12 292 3.2 4.8 0.00 0.00 0.00 95 1014.3
20200228115712 12 270 3.2 4.8 0.00 0.00 0.00 95 1014.3
20200228114712 12 315 1.6 4.8 0.00 0.00 0.00 95 1014.2
20200228113712 12 0.0 0.0 0.00 0.00 0.00 95 1014.1
20200228112712 12 0.0 0.0 0.00 0.00 0.00 95 1014.0
20200228111713 12 337 1.6 1.6 0.00 0.00 0.00 95 1013.9
20200228110712 12 337 3.2 3.2 0.00 0.00 0.00 95 1014.0
20200228105712 12 315 3.2 4.8 0.00 0.00 0.00 94 1014.0
20200228104711 12 292 3.2 4.8 0.00 0.00 0.00 94 1014.0
20200228103712 13 292 1.6 3.2 0.00 0.00 0.00 94 1014.1
20200228102711 13 270 4.8 6.4 0.00 0.00 0.00 94 1014.2
20200228101712 13 247 4.8 6.4 0.00 0.00 0.00 93 1014.2